메인 페이지
METAR-TAF:

METAR-TAF

공항 :

산투스 두몬트 공항

리우데자네이루, 리우데자네이루, 브라질

위도: 22-54S, 경도: 043-10W, 고도: 3m

현재 날씨관측

예보는 44분 전, 23:00시(UTC)에 발표되었습니다.
남동4kt
온도 22°C
습도 88%
기압 1014 hPa
시정 10km 이상
1500m 미만 상공 구름 및 적란운 없음

METAR: SBRJ 182300Z 14004KT CAVOK 22/20 Q1014

시각: 20:44 (23:44 UTC)

예보

예보는 7 시간 27분 전, 16:17시(UTC)에 발표되었습니다.
예보 대상 시간: 18일 18시부터 19일 06시까지 (UTC)
남남동12kt
시정 10km 이상
고도 2500ft 상공 구름 조금
전환 중
18일 21시부터 18일 23시까지 (UTC)
남동5kt
전환 중
19일 00시부터 19일 03시까지 (UTC)
북서5kt
시정: 7000m
고도 1500ft 상공 구름 보통

TAF: SBRJ 181617Z 1818/1906 15012KT 9999 FEW025 TX25/1818Z TN21/1906Z BECMG 1821/1823 13005KT BECMG 1900/1903 32005KT 7000 SCT015 RMK PHC

4,000개 이상의 공항 관측 자료 및 예보 (METAR 및 TAF 보고).

지도상에서 검색 가능한 기상관측소가 노란 점과 빨간 점으로 표시되어 있습니다.

기상관측소 명을 보려면 표시 위로 마우스를 이동하세요.

날씨 관측과 예보를 보려면 클릭하세요.

지도 변경 : 확대하려면 엑스 표시가 있는 녹색 버튼, 축소하려면 빼기 표시가 있는 녹색 버튼, 다음 페이지의 지도를 보려면 녹색 화살표를 클릭하세요.


METAR-TAF: